createdAt,value
2018-09-19T00:00:50.968Z,12.33
2018-09-19T00:05:55.158Z,11.10
2018-09-19T00:10:59.661Z,11.37
2018-09-19T00:16:03.492Z,12.00
2018-09-19T00:21:07.492Z,9.97
2018-09-19T00:26:11.627Z,9.40
2018-09-19T00:31:15.133Z,12.43
2018-09-19T00:36:21.173Z,14.43
2018-09-19T00:41:25.851Z,13.50
2018-09-19T00:46:30.627Z,13.10
2018-09-19T00:51:34.806Z,10.30
2018-09-19T00:56:38.651Z,11.47
2018-09-19T01:01:42.530Z,11.60
2018-09-19T01:06:46.208Z,11.00
2018-09-19T01:11:49.552Z,10.70
2018-09-19T01:16:53.417Z,11.27
2018-09-19T01:21:57.110Z,11.40
2018-09-19T01:27:01.055Z,11.63
2018-09-19T01:32:05.012Z,9.50
2018-09-19T01:37:08.507Z,10.00
2018-09-19T01:42:12.499Z,12.10
2018-09-19T01:47:15.965Z,13.77
2018-09-19T01:52:19.537Z,13.20
2018-09-19T01:57:25.034Z,10.63
2018-09-19T02:02:28.387Z,9.57
2018-09-19T02:07:31.861Z,9.37
2018-09-19T02:12:35.551Z,10.23
2018-09-19T02:17:39.101Z,9.13
2018-09-19T02:22:42.781Z,10.87
2018-09-19T02:27:47.264Z,9.83
2018-09-19T02:32:50.752Z,10.80
2018-09-19T02:37:54.115Z,8.33
2018-09-19T02:42:57.982Z,10.10
2018-09-19T02:48:01.776Z,11.33
2018-09-19T02:53:05.600Z,11.97
2018-09-19T02:58:09.652Z,11.73
2018-09-19T03:03:13.718Z,8.90
2018-09-19T03:08:17.397Z,8.70
2018-09-19T03:13:21.324Z,10.23
2018-09-19T03:18:25.156Z,10.20
2018-09-19T03:23:28.908Z,9.03
2018-09-19T03:28:32.656Z,14.10
2018-09-19T03:33:36.621Z,13.23
2018-09-19T03:38:40.505Z,15.27
2018-09-19T03:43:45.298Z,13.83
2018-09-19T03:48:49.168Z,17.00
2018-09-19T03:53:52.737Z,15.03
2018-09-19T03:58:56.565Z,16.70
2018-09-19T04:04:00.296Z,18.40
2018-09-19T04:09:07.428Z,15.50
2018-09-19T04:14:11.996Z,18.47
2018-09-19T04:19:15.359Z,13.30
2018-09-19T04:24:18.714Z,17.63
2018-09-19T04:29:22.373Z,16.47
2018-09-19T04:34:25.717Z,17.53
2018-09-19T04:39:29.825Z,17.53
2018-09-19T04:44:33.326Z,14.13
2018-09-19T04:49:36.817Z,15.13
2018-09-19T04:54:40.236Z,12.47
2018-09-19T04:59:44.493Z,12.93
2018-09-19T05:04:47.821Z,11.83
2018-09-19T05:09:51.465Z,8.93
2018-09-19T05:14:55.024Z,13.50
2018-09-19T05:19:58.508Z,9.93
2018-09-19T05:25:04.338Z,7.63
2018-09-19T05:30:07.957Z,7.80
2018-09-19T05:35:11.269Z,9.57
2018-09-19T05:40:15.084Z,7.53
2018-09-19T05:45:19.270Z,8.60
2018-09-19T05:50:22.704Z,7.60
2018-09-19T05:55:26.077Z,9.27
2018-09-19T06:00:29.728Z,10.13
2018-09-19T06:05:33.128Z,9.93
2018-09-19T06:10:36.492Z,10.27
2018-09-19T06:15:40.411Z,8.33
2018-09-19T06:20:43.725Z,8.40
2018-09-19T06:25:47.005Z,9.83
2018-09-19T06:30:50.331Z,8.93
2018-09-19T06:35:58.349Z,10.50
2018-09-19T06:41:02.075Z,10.80
2018-09-19T06:46:05.993Z,10.33
2018-09-19T06:51:09.434Z,7.57
2018-09-19T06:56:12.824Z,11.90
2018-09-19T07:01:16.281Z,11.40
2018-09-19T07:06:19.574Z,6.60
2018-09-19T07:11:23.058Z,12.03
2018-09-19T07:16:26.703Z,12.07
2018-09-19T07:21:30.054Z,15.30
2018-09-19T07:26:33.820Z,9.47
2018-09-19T07:31:38.578Z,11.47
2018-09-19T07:36:41.950Z,12.50
2018-09-19T07:41:46.081Z,11.17
2018-09-19T07:46:49.455Z,14.27
2018-09-19T07:51:53.183Z,14.43
2018-09-19T07:56:56.529Z,11.47
2018-09-19T08:02:00.288Z,11.67
2018-09-19T08:07:03.652Z,11.87
2018-09-19T08:12:06.983Z,8.77
2018-09-19T08:17:10.372Z,10.77
2018-09-19T08:22:13.959Z,8.83
2018-09-19T08:27:17.788Z,9.07
2018-09-19T08:32:21.165Z,9.37
2018-09-19T08:37:24.596Z,10.37
2018-09-19T08:42:27.912Z,8.10
2018-09-19T08:47:31.279Z,8.77
2018-09-19T08:52:34.621Z,10.07
2018-09-19T08:57:37.965Z,11.27
2018-09-19T09:02:41.664Z,8.20
2018-09-19T09:07:45.026Z,8.30
2018-09-19T09:12:53.538Z,8.10
2018-09-19T09:17:57.215Z,7.10
2018-09-19T09:23:00.642Z,7.53
2018-09-19T09:28:04.149Z,7.40
2018-09-19T09:33:07.889Z,6.40
2018-09-19T09:38:11.799Z,6.63
2018-09-19T09:43:15.279Z,5.90
2018-09-19T09:48:18.772Z,6.27
2018-09-19T09:53:22.339Z,6.00
2018-09-19T09:58:25.865Z,5.70
2018-09-19T10:03:30.810Z,6.43
2018-09-19T10:08:34.640Z,6.50
2018-09-19T10:13:38.131Z,4.70
2018-09-19T10:18:42.397Z,6.07
2018-09-19T10:23:46.375Z,5.73
2018-09-19T10:28:49.855Z,4.93
2018-09-19T10:33:53.491Z,4.77
2018-09-19T10:38:57.282Z,4.70
2018-09-19T10:44:00.909Z,4.73
2018-09-19T10:49:04.408Z,5.00
2018-09-19T10:54:07.869Z,4.20
2018-09-19T10:59:11.295Z,4.43
2018-09-19T11:04:15.044Z,6.60
2018-09-19T11:09:18.530Z,6.20
2018-09-19T11:14:22.340Z,8.10
2018-09-19T11:19:25.832Z,8.67
2018-09-19T11:24:30.147Z,6.33
2018-09-19T11:29:33.635Z,6.80
2018-09-19T11:34:37.328Z,6.30
2018-09-19T11:39:40.807Z,6.93
2018-09-19T11:44:44.881Z,5.60
2018-09-19T11:49:48.413Z,5.67
2018-09-19T11:54:51.913Z,7.27
2018-09-19T11:59:55.404Z,7.00
2018-09-19T12:05:00.033Z,5.40
2018-09-19T12:10:03.591Z,5.37
2018-09-19T12:15:07.135Z,5.03
2018-09-19T12:20:10.690Z,5.90
2018-09-19T12:25:14.548Z,4.83
2018-09-19T12:30:18.100Z,4.80
2018-09-19T12:35:21.732Z,5.67
2018-09-19T12:40:25.194Z,4.60
2018-09-19T12:45:28.833Z,5.60
2018-09-19T12:50:32.227Z,5.37
2018-09-19T12:55:35.711Z,4.83
2018-09-19T13:00:40.516Z,5.43
2018-09-19T13:05:44.208Z,3.53
2018-09-19T13:10:47.680Z,5.70
2018-09-19T13:15:51.234Z,4.30
2018-09-19T13:20:54.778Z,5.67
2018-09-19T13:25:58.239Z,5.73
2018-09-19T13:31:02.038Z,5.77
2018-09-19T13:36:05.600Z,4.40
2018-09-19T13:41:09.069Z,5.03
2018-09-19T13:46:12.650Z,5.27
2018-09-19T13:51:21.549Z,4.43
2018-09-19T13:56:29.077Z,5.17
2018-09-19T14:01:32.785Z,5.20
2018-09-19T14:06:36.315Z,5.00
2018-09-19T14:11:39.926Z,5.10
2018-09-19T14:16:43.396Z,5.60
2018-09-19T14:21:46.947Z,4.97
2018-09-19T14:26:50.430Z,6.37
2018-09-19T14:31:53.966Z,5.40
2018-09-19T14:36:57.960Z,5.00
2018-09-19T14:42:01.424Z,4.50
2018-09-19T14:47:05.216Z,4.73
2018-09-19T14:52:08.809Z,6.27
2018-09-19T14:57:13.158Z,6.20
2018-09-19T15:02:16.644Z,8.77
2018-09-19T15:07:20.604Z,10.40
2018-09-19T15:12:24.122Z,9.67
2018-09-19T15:17:27.579Z,10.87
2018-09-19T15:22:31.068Z,10.90
2018-09-19T15:27:34.391Z,12.70
2018-09-19T15:32:37.735Z,13.30
2018-09-19T15:37:41.781Z,15.40
2018-09-19T15:42:45.146Z,16.80
2018-09-19T15:47:49.114Z,14.17
2018-09-19T15:52:52.488Z,13.47
2018-09-19T15:57:55.955Z,12.03
2018-09-19T16:02:59.282Z,12.30
2018-09-19T16:08:03.152Z,12.40
2018-09-19T16:13:09.043Z,11.20
2018-09-19T16:18:12.446Z,12.10
2018-09-19T16:23:19.799Z,12.10
2018-09-19T16:28:27.859Z,10.77
2018-09-19T16:33:31.509Z,11.83
2018-09-19T16:38:35.677Z,11.17
2018-09-19T16:43:39.409Z,11.00
2018-09-19T16:48:42.760Z,11.07
2018-09-19T16:53:46.585Z,9.33
2018-09-19T16:58:49.998Z,9.50
2018-09-19T17:03:53.408Z,10.07
2018-09-19T17:08:57.191Z,9.93
2018-09-19T17:14:00.896Z,8.87
2018-09-19T17:19:04.334Z,8.77
2018-09-19T17:24:09.327Z,9.60
2018-09-19T17:29:13.408Z,9.87
2018-09-19T17:34:17.536Z,9.20
2018-09-19T17:39:21.621Z,9.90
2018-09-19T17:44:25.289Z,7.67
2018-09-19T17:49:30.446Z,8.50
2018-09-19T17:54:34.233Z,10.43
2018-09-19T17:59:37.845Z,8.53
2018-09-19T18:04:45.924Z,9.40
2018-09-19T18:09:50.082Z,8.37
2018-09-19T18:14:54.808Z,8.40
2018-09-19T18:19:59.431Z,7.23
2018-09-19T18:25:03.794Z,7.53
2018-09-19T18:30:09.026Z,8.40
2018-09-19T18:35:16.393Z,9.10
2018-09-19T18:40:21.673Z,8.20
2018-09-19T18:45:26.535Z,7.57
2018-09-19T18:50:31.480Z,7.97
2018-09-19T18:55:36.554Z,7.07
2018-09-19T19:00:41.462Z,7.37
2018-09-19T19:05:48.440Z,6.63
2018-09-19T19:10:54.167Z,6.13
2018-09-19T19:15:58.941Z,5.70
2018-09-19T19:21:05.123Z,8.07
2018-09-19T19:26:09.833Z,5.93
2018-09-19T19:31:14.963Z,6.27
2018-09-19T19:36:20.324Z,7.37
2018-09-19T19:41:25.510Z,7.43
2018-09-19T19:46:30.453Z,6.47
2018-09-19T19:51:35.568Z,7.07
2018-09-19T19:56:44.616Z,5.47
2018-09-19T20:01:50.913Z,6.90
2018-09-19T20:06:56.163Z,6.53
2018-09-19T20:12:05.090Z,5.87
2018-09-19T20:17:09.874Z,6.07
2018-09-19T20:22:14.379Z,5.60
2018-09-19T20:27:18.754Z,6.83
2018-09-19T20:32:23.697Z,5.77
2018-09-19T20:37:27.324Z,7.57
2018-09-19T20:42:30.962Z,7.90
2018-09-19T20:47:35.312Z,6.63
2018-09-19T20:52:38.827Z,7.10
2018-09-19T20:57:42.503Z,6.13
2018-09-19T21:02:45.968Z,6.60
2018-09-19T21:07:49.393Z,7.50
2018-09-19T21:12:53.148Z,6.60
2018-09-19T21:17:57.761Z,7.83
2018-09-19T21:23:02.006Z,6.30
2018-09-19T21:28:05.503Z,6.97
2018-09-19T21:33:08.905Z,8.17
2018-09-19T21:38:13.172Z,8.20
2018-09-19T21:43:16.541Z,8.17
2018-09-19T21:48:20.321Z,7.53
2018-09-19T21:53:23.612Z,8.10
2018-09-19T21:58:27.246Z,6.70
2018-09-19T22:03:31.019Z,7.83
2018-09-19T22:08:34.606Z,7.43
2018-09-19T22:13:38.303Z,6.47
2018-09-19T22:18:42.000Z,7.57
2018-09-19T22:23:45.672Z,6.60
2018-09-19T22:28:49.870Z,7.27
2018-09-19T22:33:53.315Z,6.30
2018-09-19T22:38:56.931Z,7.43
2018-09-19T22:44:00.788Z,7.90
2018-09-19T22:49:04.427Z,7.23
2018-09-19T22:54:08.477Z,7.20
2018-09-19T22:59:12.708Z,7.20
2018-09-19T23:04:16.133Z,8.10
2018-09-19T23:09:19.854Z,7.17
2018-09-19T23:14:23.879Z,5.30
2018-09-19T23:19:28.008Z,7.77
2018-09-19T23:24:32.237Z,7.37
2018-09-19T23:29:36.178Z,7.30
2018-09-19T23:34:39.988Z,6.47
2018-09-19T23:39:43.450Z,8.07
2018-09-19T23:44:47.280Z,8.03
2018-09-19T23:49:50.921Z,8.70
2018-09-19T23:54:55.083Z,9.00
2018-09-19T23:59:59.012Z,8.20
